createdAt,value
2022-08-26T00:01:29.103Z,16.30
2022-08-26T00:03:56.998Z,16.20
2022-08-26T00:06:25.440Z,16.20
2022-08-26T00:08:52.483Z,16.20
2022-08-26T00:11:26.681Z,16.20
2022-08-26T00:13:57.896Z,16.20
2022-08-26T00:16:25.838Z,16.20
2022-08-26T00:18:53.234Z,16.10
2022-08-26T00:21:20.460Z,16.00
2022-08-26T00:23:47.712Z,16.00
2022-08-26T00:26:14.957Z,16.10
2022-08-26T00:28:41.943Z,16.00
2022-08-26T00:31:11.131Z,15.90
2022-08-26T00:33:39.390Z,15.90
2022-08-26T00:36:07.240Z,15.90
2022-08-26T00:38:35.382Z,15.90
2022-08-26T00:41:05.400Z,15.80
2022-08-26T00:43:47.580Z,15.90
2022-08-26T00:46:21.738Z,15.90
2022-08-26T00:48:50.628Z,15.90
2022-08-26T00:51:20.774Z,16.00
2022-08-26T00:53:59.116Z,16.00
2022-08-26T00:56:32.882Z,16.10
2022-08-26T00:59:02.406Z,16.00
2022-08-26T01:01:31.312Z,16.00
2022-08-26T01:03:58.469Z,16.00
2022-08-26T01:06:25.921Z,16.00
2022-08-26T01:08:53.324Z,16.00
2022-08-26T01:11:21.078Z,16.10
2022-08-26T01:13:48.138Z,16.20
2022-08-26T01:16:16.010Z,16.20
2022-08-26T01:18:43.505Z,16.10
2022-08-26T01:21:12.850Z,16.00
2022-08-26T01:23:42.156Z,16.00
2022-08-26T01:26:19.755Z,15.80
2022-08-26T01:28:51.592Z,15.70
2022-08-26T01:31:19.570Z,15.70
2022-08-26T01:33:55.267Z,15.70
2022-08-26T01:36:22.745Z,15.60
2022-08-26T01:38:49.837Z,15.50
2022-08-26T01:41:19.918Z,15.40
2022-08-26T01:43:55.006Z,15.40
2022-08-26T01:46:22.811Z,15.30
2022-08-26T01:48:54.452Z,15.30
2022-08-26T01:51:22.070Z,15.30
2022-08-26T01:53:49.200Z,15.30
2022-08-26T01:56:16.193Z,15.20
2022-08-26T01:58:48.275Z,15.20
2022-08-26T02:01:15.497Z,15.10
2022-08-26T02:04:12.011Z,15.00
2022-08-26T02:06:39.235Z,15.10
2022-08-26T02:09:07.076Z,15.30
2022-08-26T02:11:34.168Z,15.40
2022-08-26T02:14:15.296Z,15.30
2022-08-26T02:16:45.903Z,15.20
2022-08-26T02:19:17.764Z,15.00
2022-08-26T02:21:46.004Z,14.90
2022-08-26T02:24:20.895Z,15.00
2022-08-26T02:26:48.049Z,15.00
2022-08-26T02:29:33.189Z,15.00
2022-08-26T02:32:00.221Z,15.00
2022-08-26T02:34:32.145Z,14.90
2022-08-26T02:37:07.746Z,15.00
2022-08-26T02:39:35.228Z,14.90
2022-08-26T02:42:02.308Z,14.80
2022-08-26T02:44:29.339Z,14.70
2022-08-26T02:46:56.258Z,14.70
2022-08-26T02:49:23.770Z,14.60
2022-08-26T02:51:51.566Z,14.50
2022-08-26T02:54:19.785Z,14.60
2022-08-26T02:56:47.273Z,14.50
2022-08-26T02:59:14.522Z,14.50
2022-08-26T03:01:41.706Z,14.30
2022-08-26T03:04:10.425Z,14.30
2022-08-26T03:06:37.432Z,14.30
2022-08-26T03:09:05.208Z,14.20
2022-08-26T03:11:33.209Z,14.40
2022-08-26T03:14:00.670Z,14.50
2022-08-26T03:16:37.007Z,14.50
2022-08-26T03:19:05.034Z,14.40
2022-08-26T03:21:32.929Z,14.30
2022-08-26T03:24:00.407Z,14.20
2022-08-26T03:26:27.870Z,14.20
2022-08-26T03:29:14.195Z,14.10
2022-08-26T03:31:41.263Z,14.10
2022-08-26T03:34:09.697Z,14.10
2022-08-26T03:36:38.813Z,14.10
2022-08-26T03:39:07.898Z,14.00
2022-08-26T03:41:35.929Z,14.00
2022-08-26T03:44:06.486Z,14.00
2022-08-26T03:46:33.673Z,13.90
2022-08-26T03:49:01.692Z,13.90
2022-08-26T03:51:28.993Z,13.90
2022-08-26T03:53:57.084Z,13.80
2022-08-26T03:56:24.352Z,13.90
2022-08-26T03:58:51.357Z,13.90
2022-08-26T04:01:19.038Z,13.80
2022-08-26T04:04:00.392Z,13.80
2022-08-26T04:06:36.745Z,13.90
2022-08-26T04:09:06.393Z,14.00
2022-08-26T04:11:34.160Z,14.00
2022-08-26T04:14:05.017Z,13.90
2022-08-26T04:16:32.091Z,13.80
2022-08-26T04:18:59.287Z,13.70
2022-08-26T04:21:26.673Z,13.80
2022-08-26T04:23:54.129Z,14.00
2022-08-26T04:26:21.800Z,14.10
2022-08-26T04:28:49.327Z,14.10
2022-08-26T04:31:17.487Z,13.90
2022-08-26T04:33:47.565Z,13.70
2022-08-26T04:36:17.291Z,13.70
2022-08-26T04:38:46.129Z,13.70
2022-08-26T04:41:15.692Z,13.70
2022-08-26T04:43:44.700Z,13.50
2022-08-26T04:46:13.747Z,13.50
2022-08-26T04:48:41.529Z,13.40
2022-08-26T04:51:10.010Z,13.50
2022-08-26T04:53:37.732Z,13.50
2022-08-26T04:56:04.964Z,13.50
2022-08-26T04:58:32.392Z,13.40
2022-08-26T05:00:59.751Z,13.50
2022-08-26T05:03:30.655Z,13.50
2022-08-26T05:05:58.134Z,13.50
2022-08-26T05:08:25.132Z,13.40
2022-08-26T05:10:56.239Z,13.50
2022-08-26T05:13:26.274Z,13.60
2022-08-26T05:15:53.318Z,13.80
2022-08-26T05:18:23.076Z,13.90
2022-08-26T05:20:54.040Z,14.00
2022-08-26T05:23:23.057Z,14.10
2022-08-26T05:25:54.661Z,14.20
2022-08-26T05:28:24.226Z,14.30
2022-08-26T05:30:51.519Z,14.40
2022-08-26T05:33:18.714Z,14.60
2022-08-26T05:35:46.883Z,14.50
2022-08-26T05:38:16.036Z,14.50
2022-08-26T05:40:45.255Z,14.50
2022-08-26T05:43:13.496Z,14.60
2022-08-26T05:45:45.848Z,14.60
2022-08-26T05:48:15.025Z,14.70
2022-08-26T05:50:52.885Z,14.80
2022-08-26T05:53:21.010Z,14.80
2022-08-26T05:55:50.053Z,14.80
2022-08-26T05:58:20.199Z,14.80
2022-08-26T06:00:56.498Z,14.90
2022-08-26T06:03:23.468Z,14.90
2022-08-26T06:05:50.451Z,14.90
2022-08-26T06:08:19.349Z,14.90
2022-08-26T06:10:52.737Z,14.90
2022-08-26T06:13:24.446Z,15.00
2022-08-26T06:15:51.942Z,15.10
2022-08-26T06:18:27.410Z,15.20
2022-08-26T06:20:57.817Z,15.30
2022-08-26T06:23:44.423Z,15.40
2022-08-26T06:26:11.471Z,15.40
2022-08-26T06:28:38.536Z,15.30
2022-08-26T06:31:06.163Z,15.30
2022-08-26T06:33:33.280Z,15.30
2022-08-26T06:36:01.222Z,15.40
2022-08-26T06:38:28.572Z,15.50
2022-08-26T06:40:55.587Z,15.50
2022-08-26T06:43:24.080Z,15.50
2022-08-26T06:45:51.976Z,15.60
2022-08-26T06:48:20.023Z,15.70
2022-08-26T06:50:47.128Z,15.80
2022-08-26T06:53:17.211Z,15.90
2022-08-26T06:55:46.183Z,16.10
2022-08-26T06:58:14.270Z,16.30
2022-08-26T07:00:41.667Z,16.50
2022-08-26T07:03:14.308Z,16.80
2022-08-26T07:05:41.396Z,17.10
2022-08-26T07:08:08.401Z,17.40
2022-08-26T07:10:36.475Z,17.70
2022-08-26T07:13:03.406Z,18.20
2022-08-26T07:15:35.838Z,18.30
2022-08-26T07:18:03.185Z,18.30
2022-08-26T07:20:30.110Z,18.10
2022-08-26T07:22:58.938Z,17.80
2022-08-26T07:25:29.049Z,17.70
2022-08-26T07:27:55.985Z,17.70
2022-08-26T07:30:23.539Z,18.00
2022-08-26T07:32:50.661Z,18.40
2022-08-26T07:35:18.020Z,18.80
2022-08-26T07:37:44.958Z,19.40
2022-08-26T07:40:12.069Z,20.00
2022-08-26T07:42:40.578Z,20.60
2022-08-26T07:45:07.765Z,21.10
2022-08-26T07:47:34.792Z,21.30
2022-08-26T07:50:01.730Z,21.80
2022-08-26T07:52:29.639Z,22.10
2022-08-26T07:54:58.113Z,22.40
2022-08-26T07:57:26.348Z,22.70
2022-08-26T07:59:54.998Z,23.00
2022-08-26T08:02:22.406Z,23.30
2022-08-26T08:04:49.409Z,23.60
2022-08-26T08:07:16.660Z,23.80
2022-08-26T08:09:43.927Z,23.70
2022-08-26T08:12:14.142Z,23.70
2022-08-26T08:14:45.218Z,23.90
2022-08-26T08:19:44.833Z,24.00
2022-08-26T08:22:17.250Z,23.90
2022-08-26T08:24:49.795Z,23.70
2022-08-26T08:27:21.435Z,24.00
2022-08-26T08:29:50.686Z,24.10
2022-08-26T08:32:19.111Z,24.40
2022-08-26T08:34:46.071Z,24.60
2022-08-26T08:37:13.003Z,24.90
2022-08-26T08:39:40.129Z,25.20
2022-08-26T08:42:30.675Z,25.20
2022-08-26T08:44:58.851Z,25.40
2022-08-26T08:47:36.522Z,25.00
2022-08-26T08:50:14.528Z,25.00
2022-08-26T08:52:41.541Z,25.20
2022-08-26T08:55:11.133Z,25.10
2022-08-26T08:57:53.673Z,25.00
2022-08-26T09:00:30.594Z,24.60
2022-08-26T09:03:01.137Z,24.50
2022-08-26T09:05:34.275Z,24.60
2022-08-26T09:08:11.239Z,24.70
2022-08-26T09:10:47.683Z,24.80
2022-08-26T09:13:26.260Z,25.20
2022-08-26T09:16:07.531Z,25.30
2022-08-26T09:18:47.412Z,25.80
2022-08-26T09:21:15.846Z,25.40
2022-08-26T09:23:49.146Z,25.00
2022-08-26T09:26:30.643Z,24.70
2022-08-26T09:29:02.927Z,24.20
2022-08-26T09:31:32.453Z,24.20
2022-08-26T09:34:19.097Z,24.10
2022-08-26T09:36:47.047Z,24.10
2022-08-26T09:39:33.531Z,24.30
2022-08-26T09:42:09.602Z,24.60
2022-08-26T09:44:58.486Z,25.30
2022-08-26T09:47:33.920Z,25.50
2022-08-26T09:50:29.398Z,25.60
2022-08-26T09:53:16.594Z,25.40
2022-08-26T09:55:45.438Z,25.50
2022-08-26T09:58:14.358Z,25.20
2022-08-26T10:00:43.745Z,24.90
2022-08-26T10:03:11.748Z,25.00
2022-08-26T10:05:54.795Z,25.00
2022-08-26T10:08:26.401Z,25.10
2022-08-26T10:10:53.761Z,25.00
2022-08-26T10:13:42.336Z,24.70
2022-08-26T10:16:28.386Z,24.20
2022-08-26T10:19:06.575Z,24.20
2022-08-26T10:21:41.307Z,24.30
2022-08-26T10:24:11.300Z,24.10
2022-08-26T10:26:55.812Z,24.00
2022-08-26T10:29:29.863Z,24.10
2022-08-26T10:32:03.729Z,23.90
2022-08-26T10:34:32.529Z,23.70
2022-08-26T10:37:15.815Z,23.90
2022-08-26T10:40:25.791Z,24.30
2022-08-26T10:43:19.456Z,24.50
2022-08-26T10:45:52.894Z,24.60
2022-08-26T10:48:22.304Z,24.50
2022-08-26T10:50:50.044Z,24.60
2022-08-26T10:53:25.442Z,24.40
2022-08-26T10:56:26.738Z,24.50
2022-08-26T10:59:03.022Z,24.30
2022-08-26T11:01:42.272Z,24.60
2022-08-26T11:04:29.595Z,24.80
2022-08-26T11:07:39.249Z,24.80
2022-08-26T11:10:21.614Z,24.60
2022-08-26T11:12:57.416Z,25.10
2022-08-26T11:15:25.076Z,25.20
2022-08-26T11:17:52.135Z,25.10
2022-08-26T11:20:41.747Z,25.20
2022-08-26T11:23:24.125Z,25.30
2022-08-26T11:26:09.385Z,25.40
2022-08-26T11:28:38.847Z,25.30
2022-08-26T11:31:09.681Z,25.00
2022-08-26T11:33:49.252Z,24.70
2022-08-26T11:36:47.918Z,24.50
2022-08-26T11:39:54.723Z,24.30
2022-08-26T11:42:33.020Z,24.20
2022-08-26T11:45:03.541Z,23.90
2022-08-26T11:47:32.842Z,23.70
2022-08-26T11:50:27.677Z,23.70
2022-08-26T11:53:02.020Z,23.80
2022-08-26T11:55:30.681Z,23.80
2022-08-26T11:58:00.914Z,23.60
2022-08-26T12:00:33.476Z,23.50
2022-08-26T12:03:03.007Z,23.20
2022-08-26T12:05:31.996Z,23.00
2022-08-26T12:08:02.425Z,22.90
2022-08-26T12:10:32.472Z,22.90
2022-08-26T12:13:00.490Z,23.00
2022-08-26T12:15:29.684Z,23.10
2022-08-26T12:17:56.891Z,23.00
2022-08-26T12:20:46.337Z,22.80
2022-08-26T12:23:47.025Z,23.00
2022-08-26T12:26:22.619Z,23.10
2022-08-26T12:28:55.705Z,23.00
2022-08-26T12:31:32.280Z,22.80
2022-08-26T12:34:00.105Z,22.70
2022-08-26T12:36:43.171Z,22.80
2022-08-26T12:39:13.609Z,22.80
2022-08-26T12:41:47.157Z,22.90
2022-08-26T12:44:33.950Z,22.80
2022-08-26T12:47:39.071Z,22.80
2022-08-26T12:50:18.779Z,23.00
2022-08-26T12:53:12.277Z,23.20
2022-08-26T12:55:41.817Z,23.40
2022-08-26T12:58:31.749Z,23.70
2022-08-26T13:01:04.353Z,24.00
2022-08-26T13:03:34.614Z,24.20
2022-08-26T13:06:23.349Z,24.40
2022-08-26T13:09:08.857Z,24.30
2022-08-26T13:11:55.817Z,24.30
2022-08-26T13:14:24.667Z,24.30
2022-08-26T13:16:52.526Z,24.40
2022-08-26T13:19:23.500Z,24.40
2022-08-26T13:21:53.984Z,24.30
2022-08-26T13:24:26.377Z,24.20
2022-08-26T13:26:53.635Z,24.30
2022-08-26T13:29:20.808Z,24.30
2022-08-26T13:31:48.083Z,24.30
2022-08-26T13:34:18.219Z,24.30
2022-08-26T13:36:46.581Z,24.20
2022-08-26T13:39:13.708Z,24.30
2022-08-26T13:41:40.692Z,24.10
2022-08-26T13:44:07.695Z,24.00
2022-08-26T13:46:34.746Z,23.70
2022-08-26T13:49:02.253Z,23.50
2022-08-26T13:51:29.984Z,23.50
2022-08-26T13:53:57.695Z,23.50
2022-08-26T13:56:29.473Z,23.60
2022-08-26T13:58:57.387Z,23.50
2022-08-26T14:01:24.598Z,23.60
2022-08-26T14:03:51.842Z,23.70
2022-08-26T14:06:19.073Z,23.70
2022-08-26T14:08:46.244Z,23.70
2022-08-26T14:11:13.437Z,23.70
2022-08-26T14:13:40.509Z,23.60
2022-08-26T14:16:09.376Z,23.40
2022-08-26T14:18:41.791Z,23.20
2022-08-26T14:21:10.364Z,23.20
2022-08-26T14:23:37.595Z,23.30
2022-08-26T14:26:08.264Z,23.60
2022-08-26T14:28:35.767Z,23.60
2022-08-26T14:31:02.847Z,23.70
2022-08-26T14:33:32.420Z,23.80
2022-08-26T14:36:20.109Z,23.90
2022-08-26T14:38:47.275Z,23.90
2022-08-26T14:41:14.522Z,23.80
2022-08-26T14:43:43.801Z,23.80
2022-08-26T14:46:10.826Z,23.90
2022-08-26T14:48:37.822Z,24.00
2022-08-26T14:51:05.560Z,24.00
2022-08-26T14:53:50.976Z,24.00
2022-08-26T14:56:17.982Z,24.00
2022-08-26T14:58:45.091Z,24.00
2022-08-26T15:01:13.087Z,24.00
2022-08-26T15:03:40.164Z,24.00
2022-08-26T15:06:08.457Z,24.10
2022-08-26T15:08:36.781Z,24.20
2022-08-26T15:11:04.256Z,24.30
2022-08-26T15:13:31.529Z,24.30
2022-08-26T15:15:58.525Z,24.30
2022-08-26T15:18:25.684Z,24.30
2022-08-26T15:20:52.900Z,24.30
2022-08-26T15:23:19.889Z,24.30
2022-08-26T15:25:48.361Z,24.40
2022-08-26T15:28:15.536Z,24.30
2022-08-26T15:30:43.232Z,24.20
2022-08-26T15:33:15.379Z,24.30
2022-08-26T15:35:43.093Z,24.30
2022-08-26T15:38:10.897Z,24.30
2022-08-26T15:40:38.234Z,24.30
2022-08-26T15:43:25.591Z,24.30
2022-08-26T15:45:54.250Z,24.30
2022-08-26T15:48:21.856Z,24.20
2022-08-26T15:50:53.883Z,24.20
2022-08-26T15:53:22.132Z,24.20
2022-08-26T15:55:49.466Z,24.20
2022-08-26T15:58:17.072Z,24.00
2022-08-26T16:00:44.903Z,23.90
2022-08-26T16:03:12.085Z,23.90
2022-08-26T16:05:39.784Z,23.80
2022-08-26T16:08:07.278Z,23.80
2022-08-26T16:10:35.632Z,23.90
2022-08-26T16:13:02.709Z,24.00
2022-08-26T16:15:29.758Z,24.10
2022-08-26T16:17:59.653Z,24.10
2022-08-26T16:20:26.762Z,24.20
2022-08-26T16:22:54.055Z,24.20
2022-08-26T16:25:21.119Z,24.30
2022-08-26T16:27:48.283Z,24.20
2022-08-26T16:30:15.454Z,24.20
2022-08-26T16:32:42.368Z,24.20
2022-08-26T16:35:09.414Z,24.20
2022-08-26T16:37:37.754Z,24.10
2022-08-26T16:40:07.284Z,24.00
2022-08-26T16:42:34.368Z,23.80
2022-08-26T16:45:01.537Z,23.60
2022-08-26T16:47:28.856Z,23.60
2022-08-26T16:49:55.830Z,23.50
2022-08-26T16:52:23.040Z,23.40
2022-08-26T16:54:53.223Z,23.40
2022-08-26T16:57:20.238Z,23.30
2022-08-26T16:59:47.210Z,23.30
2022-08-26T17:02:14.316Z,23.40
2022-08-26T17:04:41.366Z,23.30
2022-08-26T17:07:13.248Z,23.30
2022-08-26T17:09:40.587Z,23.20
2022-08-26T17:12:08.607Z,23.20
2022-08-26T17:14:35.580Z,23.10
2022-08-26T17:17:03.310Z,23.10
2022-08-26T17:19:30.262Z,23.00
2022-08-26T17:22:10.508Z,23.00
2022-08-26T17:24:37.489Z,22.90
2022-08-26T17:27:04.778Z,22.90
2022-08-26T17:29:31.730Z,22.90
2022-08-26T17:31:58.870Z,22.90
2022-08-26T17:34:25.787Z,22.90
2022-08-26T17:36:52.718Z,22.90
2022-08-26T17:39:19.685Z,22.90
2022-08-26T17:41:46.640Z,22.90
2022-08-26T17:44:13.590Z,22.80
2022-08-26T17:46:40.688Z,22.70
2022-08-26T17:49:07.637Z,22.70
2022-08-26T17:51:35.260Z,22.60
2022-08-26T17:54:02.174Z,22.60
2022-08-26T17:56:29.345Z,22.50
2022-08-26T17:58:57.949Z,22.50
2022-08-26T18:01:30.483Z,22.50
2022-08-26T18:04:00.422Z,22.40
2022-08-26T18:06:28.188Z,22.40
2022-08-26T18:08:55.464Z,22.40
2022-08-26T18:11:23.673Z,22.30
2022-08-26T18:13:50.728Z,22.20
2022-08-26T18:16:18.197Z,22.20
2022-08-26T18:18:46.607Z,22.20
2022-08-26T18:21:19.344Z,22.30
2022-08-26T18:23:46.806Z,22.20
2022-08-26T18:26:22.961Z,22.20
2022-08-26T18:28:50.129Z,22.30
2022-08-26T18:31:17.238Z,22.20
2022-08-26T18:33:44.642Z,22.20
2022-08-26T18:36:25.866Z,22.10
2022-08-26T18:38:53.032Z,22.10
2022-08-26T18:41:21.222Z,22.10
2022-08-26T18:43:50.544Z,22.00
2022-08-26T18:46:18.418Z,22.00
2022-08-26T18:48:45.466Z,22.00
2022-08-26T18:51:19.017Z,22.00
2022-08-26T18:53:46.181Z,21.90
2022-08-26T18:56:15.387Z,21.90
2022-08-26T18:58:45.086Z,21.90
2022-08-26T19:01:13.212Z,21.90
2022-08-26T19:03:40.460Z,21.90
2022-08-26T19:06:07.646Z,22.00
2022-08-26T19:08:34.781Z,22.00
2022-08-26T19:11:01.824Z,22.00
2022-08-26T19:13:28.774Z,22.00
2022-08-26T19:15:55.948Z,21.90
2022-08-26T19:18:23.084Z,21.90
2022-08-26T19:20:50.089Z,21.90
2022-08-26T19:23:30.761Z,21.90
2022-08-26T19:25:58.887Z,21.80
2022-08-26T19:28:25.851Z,21.80
2022-08-26T19:30:53.241Z,21.80
2022-08-26T19:33:20.540Z,21.80
2022-08-26T19:35:47.514Z,21.90
2022-08-26T19:38:15.431Z,21.90
2022-08-26T19:40:42.736Z,21.90
2022-08-26T19:43:10.610Z,21.90
2022-08-26T19:45:39.938Z,22.00
2022-08-26T19:48:07.114Z,22.00
2022-08-26T19:50:34.307Z,22.00
2022-08-26T19:53:01.274Z,22.00
2022-08-26T19:55:28.266Z,22.00
2022-08-26T19:57:55.337Z,22.00
2022-08-26T20:00:25.054Z,21.90
2022-08-26T20:02:52.542Z,21.80
2022-08-26T20:05:20.857Z,21.80
2022-08-26T20:07:48.397Z,21.80
2022-08-26T20:10:16.269Z,21.80
2022-08-26T20:12:43.323Z,21.90
2022-08-26T20:15:11.571Z,21.80
2022-08-26T20:17:38.563Z,21.70
2022-08-26T20:20:32.584Z,21.50
2022-08-26T20:23:02.613Z,21.40
2022-08-26T20:25:29.728Z,21.30
2022-08-26T20:27:56.731Z,21.20
2022-08-26T20:30:23.925Z,21.20
2022-08-26T20:32:50.975Z,21.10
2022-08-26T20:35:18.210Z,21.10
2022-08-26T20:37:45.177Z,21.10
2022-08-26T20:40:13.302Z,21.10
2022-08-26T20:42:40.376Z,21.10
2022-08-26T20:45:08.040Z,21.00
2022-08-26T20:47:35.305Z,21.00
2022-08-26T20:50:02.839Z,20.90
2022-08-26T20:52:29.812Z,20.80
2022-08-26T20:54:56.932Z,20.80
2022-08-26T20:57:24.024Z,20.80
2022-08-26T20:59:50.982Z,20.80
2022-08-26T21:02:18.288Z,20.80
2022-08-26T21:04:45.424Z,20.80
2022-08-26T21:07:12.569Z,20.70
2022-08-26T21:09:39.543Z,20.60
2022-08-26T21:12:06.949Z,20.40
2022-08-26T21:14:33.917Z,20.30
2022-08-26T21:17:01.117Z,20.10
2022-08-26T21:19:28.179Z,20.10
2022-08-26T21:21:55.256Z,20.10
2022-08-26T21:24:22.362Z,20.20
2022-08-26T21:26:49.353Z,20.20
2022-08-26T21:29:16.399Z,20.10
2022-08-26T21:31:46.568Z,20.10
2022-08-26T21:34:15.269Z,20.00
2022-08-26T21:36:42.245Z,19.80
2022-08-26T21:39:11.722Z,19.60
2022-08-26T21:41:39.854Z,19.40
2022-08-26T21:44:06.825Z,19.30
2022-08-26T21:46:36.594Z,19.20
2022-08-26T21:49:09.432Z,19.10
2022-08-26T21:51:38.620Z,19.10
2022-08-26T21:54:10.837Z,19.00
2022-08-26T21:56:40.771Z,19.00
2022-08-26T21:59:08.197Z,19.00
2022-08-26T22:01:35.663Z,19.10
2022-08-26T22:04:05.958Z,19.10
2022-08-26T22:06:34.475Z,19.00
2022-08-26T22:09:01.446Z,18.80
2022-08-26T22:11:28.896Z,18.60
2022-08-26T22:13:57.013Z,18.40
2022-08-26T22:16:25.130Z,18.30
2022-08-26T22:18:53.417Z,18.40
2022-08-26T22:21:23.856Z,18.40
2022-08-26T22:23:50.973Z,18.30
2022-08-26T22:26:25.841Z,18.10
2022-08-26T22:28:58.507Z,18.00
2022-08-26T22:31:28.190Z,18.00
2022-08-26T22:34:13.004Z,18.10
2022-08-26T22:36:43.703Z,18.30
2022-08-26T22:39:14.990Z,18.40
2022-08-26T22:41:43.205Z,18.40
2022-08-26T22:44:11.839Z,18.40
2022-08-26T22:46:39.187Z,18.40
2022-08-26T22:49:06.553Z,18.40
2022-08-26T22:51:33.834Z,18.30
2022-08-26T22:54:00.824Z,18.30
2022-08-26T22:56:27.795Z,18.10
2022-08-26T22:58:54.757Z,18.10
2022-08-26T23:01:21.798Z,18.10
2022-08-26T23:03:48.896Z,18.10
2022-08-26T23:06:16.185Z,18.00
2022-08-26T23:08:45.549Z,17.90
2022-08-26T23:11:13.191Z,17.90
2022-08-26T23:13:40.499Z,18.00
2022-08-26T23:16:09.720Z,18.10
2022-08-26T23:18:37.150Z,18.10
2022-08-26T23:21:04.684Z,17.80
2022-08-26T23:23:31.869Z,17.50
2022-08-26T23:25:58.973Z,17.40
2022-08-26T23:28:26.564Z,17.10
2022-08-26T23:30:53.924Z,17.00
2022-08-26T23:33:21.123Z,16.90
2022-08-26T23:35:48.155Z,16.80
2022-08-26T23:38:16.484Z,16.80
2022-08-26T23:40:43.563Z,16.80
2022-08-26T23:43:11.643Z,16.90
2022-08-26T23:45:38.894Z,17.10
2022-08-26T23:48:06.542Z,17.20
2022-08-26T23:50:52.265Z,17.10
2022-08-26T23:53:21.308Z,17.10
2022-08-26T23:55:49.591Z,17.20
2022-08-26T23:58:17.430Z,17.30
